Time;durP1;ratioP1;P1;durP2;ratioP2;P2;SDS_P1;SDS_P2;PMS_P1;PMS_P2;Temp;Humidity;BMP_temperature;BMP_pressure;BME280_temperature;BME280_humidity;BME280_pressure;Samples;Min_cycle;Max_cycle;Signal;HPM_P1;HPM_P2
2022/07/19 00:08:28;;;;;;;8.27;4.03;;;32.80;28.70;;;;;;21168266;28;20044;-53
2022/07/19 00:18:30;;;;;;;5.88;3.80;;;32.70;28.60;;;;;;21166668;27;20097;-54
2022/07/19 00:28:32;;;;;;;8.60;3.50;;;32.60;28.60;;;;;;21166891;28;20177;-56
2022/07/19 00:38:34;;;;;;;11.43;4.18;;;32.30;28.90;;;;;;21166311;28;20411;-56
2022/07/19 00:48:35;;;;;;;6.45;4.00;;;32.30;29.20;;;;;;21165736;28;20048;-55
2022/07/19 00:58:38;;;;;;;11.20;4.43;;;32.10;29.40;;;;;;21163699;28;20055;-53
2022/07/19 01:08:41;;;;;;;11.10;4.85;;;32.10;29.70;;;;;;21164860;28;20046;-54
2022/07/19 01:18:43;;;;;;;9.50;3.53;;;31.80;30.00;;;;;;21163935;28;20058;-53
2022/07/19 01:28:46;;;;;;;9.32;3.60;;;31.60;29.90;;;;;;21163258;28;20389;-54
2022/07/19 01:38:50;;;;;;;13.60;3.50;;;31.40;29.60;;;;;;21162443;28;20079;-54
2022/07/19 01:48:52;;;;;;;8.80;3.53;;;31.30;29.40;;;;;;21163321;28;20048;-54
2022/07/19 01:58:58;;;;;;;8.20;3.08;;;31.30;29.10;;;;;;21161488;28;20047;-53
2022/07/19 02:09:03;;;;;;;6.35;2.78;;;31.10;29.30;;;;;;21161156;28;20067;-55
2022/07/19 02:19:07;;;;;;;5.68;2.90;;;31.00;29.30;;;;;;21160957;28;20058;-54
2022/07/19 02:29:12;;;;;;;10.07;3.60;;;30.90;29.20;;;;;;21160077;28;20050;-55
2022/07/19 02:39:15;;;;;;;5.93;2.78;;;30.70;29.70;;;;;;21160093;28;20098;-54
2022/07/19 02:49:18;;;;;;;5.85;2.67;;;30.60;29.70;;;;;;21171583;28;20043;-53
2022/07/19 02:59:20;;;;;;;8.23;3.50;;;30.50;29.80;;;;;;21175216;28;20078;-53
2022/07/19 03:09:22;;;;;;;7.05;4.03;;;30.40;30.00;;;;;;21173575;28;20066;-54
2022/07/19 03:19:26;;;;;;;5.53;3.05;;;30.20;30.00;;;;;;21174202;28;20063;-54
2022/07/19 03:29:29;;;;;;;6.80;2.65;;;30.10;30.50;;;;;;21172551;28;20388;-54
2022/07/19 03:39:31;;;;;;;9.00;2.90;;;29.80;30.80;;;;;;21169925;28;20407;-55
2022/07/19 03:49:33;;;;;;;5.38;2.88;;;29.60;30.60;;;;;;21168938;28;20043;-53
2022/07/19 03:59:34;;;;;;;9.30;2.90;;;29.20;31.00;;;;;;21169164;28;20051;-55
2022/07/19 04:09:37;;;;;;;3.95;2.70;;;29.20;30.80;;;;;;21168604;28;20054;-54
2022/07/19 04:19:39;;;;;;;3.45;2.22;;;29.10;31.00;;;;;;21168011;28;20487;-55
2022/07/19 04:29:41;;;;;;;8.50;2.47;;;28.90;30.70;;;;;;21167683;28;20062;-53
2022/07/19 04:39:43;;;;;;;4.45;2.47;;;28.90;31.00;;;;;;21165642;28;20419;-54
2022/07/19 04:49:48;;;;;;;7.03;3.50;;;28.80;30.40;;;;;;21165361;28;20071;-54
2022/07/19 04:59:50;;;;;;;8.75;3.45;;;28.60;30.90;;;;;;21165201;28;20063;-55
2022/07/19 05:09:52;;;;;;;9.88;3.10;;;28.60;30.80;;;;;;21163864;28;20043;-56
2022/07/19 05:19:54;;;;;;;8.15;3.00;;;28.50;30.90;;;;;;21164227;28;20087;-55
2022/07/19 05:29:56;;;;;;;8.65;3.28;;;28.40;31.20;;;;;;21164016;28;20146;-55
2022/07/19 05:39:58;;;;;;;6.50;3.35;;;28.10;31.20;;;;;;21162297;28;20064;-56
2022/07/19 05:50:00;;;;;;;6.30;2.88;;;28.20;31.50;;;;;;21163319;28;20043;-56
2022/07/19 06:00:03;;;;;;;7.43;2.80;;;28.00;31.50;;;;;;21162153;28;20052;-54
2022/07/19 06:10:05;;;;;;;9.65;3.38;;;27.90;31.70;;;;;;21161954;28;20051;-54
2022/07/19 06:20:08;;;;;;;9.82;2.85;;;27.80;32.60;;;;;;21168494;28;20505;-55
2022/07/19 06:30:09;;;;;;;6.00;3.33;;;27.70;33.80;;;;;;21177005;28;20048;-56
2022/07/19 06:40:12;;;;;;;8.38;2.88;;;27.60;34.90;;;;;;21176311;27;20114;-55
2022/07/19 06:50:14;;;;;;;11.95;3.42;;;27.60;34.50;;;;;;21175805;28;20043;-55
2022/07/19 07:00:16;;;;;;;6.90;3.35;;;27.60;33.70;;;;;;21175682;28;20047;-56
2022/07/19 07:10:18;;;;;;;9.98;3.13;;;28.20;32.70;;;;;;21176678;28;20043;-54
2022/07/19 07:20:20;;;;;;;10.73;2.90;;;28.90;30.90;;;;;;21175668;27;20059;-55
2022/07/19 07:30:21;;;;;;;5.07;2.47;;;29.60;30.10;;;;;;21172184;28;20079;-54
2022/07/19 07:40:23;;;;;;;6.55;2.55;;;30.40;28.40;;;;;;21172196;28;20056;-54
2022/07/19 07:50:25;;;;;;;8.05;2.80;;;30.70;28.30;;;;;;21171651;28;20391;-55
2022/07/19 08:00:27;;;;;;;7.90;2.72;;;31.20;28.10;;;;;;21170863;28;20400;-54
2022/07/19 08:10:32;;;;;;;5.20;2.38;;;31.60;28.20;;;;;;21169509;28;20126;-56
2022/07/19 08:20:34;;;;;;;6.53;2.92;;;31.60;29.10;;;;;;21170359;28;20055;-54
2022/07/19 08:30:35;;;;;;;7.30;5.00;;;32.00;29.10;;;;;;21167687;27;20040;-55
2022/07/19 08:40:42;;;;;;;8.13;2.85;;;32.10;29.30;;;;;;21165255;28;20070;-55
2022/07/19 08:50:46;;;;;;;8.75;3.38;;;32.20;28.80;;;;;;21165599;28;20052;-56
2022/07/19 09:00:47;;;;;;;9.82;3.30;;;32.30;29.00;;;;;;21166221;28;20059;-56
2022/07/19 09:21:10;;;;;;;7.72;2.78;;;32.70;27.70;;;;;;21163378;28;20054;-56
2022/07/19 09:31:12;;;;;;;5.97;2.50;;;32.60;27.70;;;;;;21226529;27;20042;-56
2022/07/19 09:41:17;;;;;;;8.00;2.60;;;32.90;26.80;;;;;;21247269;27;20095;-58
2022/07/19 09:51:21;;;;;;;7.25;2.70;;;32.60;27.20;;;;;;21250145;27;20092;-55
2022/07/19 10:01:24;;;;;;;4.60;2.45;;;32.60;26.20;;;;;;21264350;27;20118;-54
2022/07/19 10:11:28;;;;;;;5.88;2.60;;;33.10;26.00;;;;;;21263456;27;20118;-53
2022/07/19 10:21:31;;;;;;;6.38;2.47;;;33.10;25.40;;;;;;21262705;27;20051;-55
2022/07/19 10:31:35;;;;;;;7.00;2.90;;;33.30;25.10;;;;;;21262419;27;20551;-55
2022/07/19 10:41:37;;;;;;;6.07;2.47;;;33.20;25.00;;;;;;21260897;27;20055;-56
2022/07/19 10:51:39;;;;;;;6.32;3.13;;;33.30;23.80;;;;;;21260364;27;20043;-57
2022/07/19 11:01:59;;;;;;;5.68;2.80;;;33.10;24.90;;;;;;21258922;27;20130;-55
2022/07/19 11:12:20;;;;;;;5.45;2.47;;;33.30;24.20;;;;;;21258626;27;20475;-57
2022/07/19 11:22:22;;;;;;;4.65;2.75;;;33.50;22.70;;;;;;21258858;27;20498;-55
2022/07/19 11:32:24;;;;;;;8.10;2.58;;;33.20;23.60;;;;;;21257415;27;20124;-54
2022/07/19 11:42:50;;;;;;;7.53;3.03;;;33.40;23.10;;;;;;21256265;27;20055;-55
2022/07/19 11:52:59;;;;;;;5.95;3.33;;;33.60;22.30;;;;;;21255884;27;20047;-55
2022/07/19 12:03:04;;;;;;;6.13;2.20;;;33.50;23.10;;;;;;21254883;27;20054;-54
2022/07/19 12:13:09;;;;;;;6.70;2.13;;;33.60;21.00;;;;;;21253947;27;20055;-59
2022/07/19 12:23:22;;;;;;;10.18;2.42;;;33.70;21.20;;;;;;21253329;27;20085;-55
2022/07/19 12:33:25;;;;;;;5.85;2.70;;;33.80;21.40;;;;;;21250018;27;20043;-56
2022/07/19 12:43:26;;;;;;;4.43;2.35;;;34.00;20.00;;;;;;21250866;27;20129;-53
2022/07/19 12:53:28;;;;;;;5.72;2.03;;;34.00;20.10;;;;;;21251800;27;20050;-56
2022/07/19 13:03:30;;;;;;;6.40;2.30;;;34.10;18.50;;;;;;21249305;27;20051;-55
2022/07/19 13:13:31;;;;;;;4.85;2.08;;;34.20;18.00;;;;;;21248753;27;20100;-55
2022/07/19 13:23:33;;;;;;;6.13;1.60;;;34.20;17.70;;;;;;21249053;27;20498;-56
2022/07/19 13:33:35;;;;;;;6.07;1.42;;;34.30;17.80;;;;;;21254721;27;20488;-54
2022/07/19 13:43:39;;;;;;;4.72;1.77;;;34.30;17.60;;;;;;21332818;27;20050;-54
2022/07/19 13:53:41;;;;;;;3.05;1.40;;;34.20;16.30;;;;;;21332598;27;20083;-54
2022/07/19 14:03:44;;;;;;;8.30;1.50;;;34.40;14.50;;;;;;21332890;27;20058;-54
2022/07/19 14:13:47;;;;;;;4.15;1.10;;;34.60;14.90;;;;;;21331444;27;20108;-54
2022/07/19 14:23:48;;;;;;;4.97;1.60;;;34.60;14.70;;;;;;21331183;27;20136;-54
2022/07/19 14:33:51;;;;;;;4.68;1.80;;;34.60;15.90;;;;;;21331038;27;20050;-54
2022/07/19 14:43:52;;;;;;;6.13;1.33;;;34.60;16.20;;;;;;21341034;27;20047;-56
2022/07/19 14:53:54;;;;;;;4.20;3.03;;;34.70;16.10;;;;;;21345100;27;20563;-54
2022/07/19 15:03:56;;;;;;;6.13;1.60;;;34.60;16.80;;;;;;21344677;27;20056;-54
2022/07/19 15:13:59;;;;;;;4.97;1.80;;;34.80;16.90;;;;;;21343676;27;20099;-55
2022/07/19 15:24:01;;;;;;;6.55;1.98;;;34.70;17.10;;;;;;21343055;27;20042;-55
2022/07/19 15:34:03;;;;;;;7.60;2.08;;;34.90;17.20;;;;;;21342956;27;20046;-56
2022/07/19 15:44:05;;;;;;;4.45;2.78;;;34.80;17.00;;;;;;21341286;27;20134;-54
2022/07/19 15:54:07;;;;;;;4.47;1.50;;;34.80;17.00;;;;;;21340420;27;20050;-54
2022/07/19 16:04:10;;;;;;;5.18;1.73;;;34.70;16.40;;;;;;21321076;27;20053;-54
2022/07/19 16:14:11;;;;;;;6.65;2.00;;;34.70;15.90;;;;;;21340296;27;20046;-54
2022/07/19 16:24:12;;;;;;;9.15;2.03;;;34.70;16.20;;;;;;21338012;27;20051;-54
2022/07/19 16:34:14;;;;;;;5.88;1.70;;;34.80;17.00;;;;;;21338831;27;20439;-55
2022/07/19 16:44:16;;;;;;;7.25;4.18;;;34.70;16.20;;;;;;21337318;27;20043;-55
2022/07/19 16:54:18;;;;;;;7.32;1.63;;;34.60;16.90;;;;;;21336222;27;20064;-57
2022/07/19 17:04:19;;;;;;;4.65;1.70;;;34.60;17.20;;;;;;21334392;27;20478;-55
2022/07/19 17:14:21;;;;;;;6.25;1.40;;;34.40;16.10;;;;;;21333245;27;20046;-55
2022/07/19 17:24:22;;;;;;;4.55;2.40;;;34.50;15.90;;;;;;21333941;27;20068;-54
2022/07/19 17:34:24;;;;;;;3.70;1.98;;;34.50;14.70;;;;;;21333724;27;20099;-56
2022/07/19 17:44:26;;;;;;;2.67;1.30;;;34.30;14.90;;;;;;21332353;27;20121;-56
2022/07/19 17:54:28;;;;;;;3.33;1.00;;;34.20;15.10;;;;;;21325242;27;20104;-54
2022/07/19 18:04:30;;;;;;;5.82;5.22;;;34.20;14.70;;;;;;21316697;27;20051;-58
2022/07/19 18:14:31;;;;;;;5.30;3.97;;;33.70;13.60;;;;;;21251872;27;20103;-55
2022/07/19 18:24:33;;;;;;;1.88;1.05;;;33.60;13.20;;;;;;21261827;27;20082;-54
2022/07/19 18:34:34;;;;;;;2.90;1.10;;;33.50;14.10;;;;;;21247868;27;20043;-57
2022/07/19 18:44:37;;;;;;;1.40;0.90;;;33.40;14.40;;;;;;21262014;27;20134;-54
2022/07/19 18:54:39;;;;;;;3.85;1.00;;;33.20;14.10;;;;;;21260266;27;20054;-55
2022/07/19 19:04:40;;;;;;;3.28;1.83;;;33.10;14.20;;;;;;21258453;27;20142;-56
2022/07/19 19:14:42;;;;;;;1.83;1.00;;;32.90;13.60;;;;;;21259088;27;20108;-53
2022/07/19 19:24:45;;;;;;;5.32;4.13;;;32.60;13.80;;;;;;21256979;27;20074;-55
2022/07/19 19:34:47;;;;;;;2.65;1.27;;;32.50;13.80;;;;;;21268734;27;20054;-54
2022/07/19 19:44:50;;;;;;;3.10;1.05;;;32.30;13.60;;;;;;21257150;27;20406;-55
2022/07/19 19:54:52;;;;;;;4.32;2.10;;;32.00;13.90;;;;;;21256128;27;20107;-55
2022/07/19 20:04:54;;;;;;;6.32;1.30;;;31.90;15.30;;;;;;21254906;27;20055;-59
2022/07/19 20:14:55;;;;;;;5.40;2.50;;;31.70;16.20;;;;;;21253450;27;20642;-55
2022/07/19 20:24:57;;;;;;;7.53;2.65;;;31.60;18.40;;;;;;21252957;27;20047;-55
2022/07/19 20:35:01;;;;;;;5.38;2.15;;;31.60;20.10;;;;;;21250860;27;20101;-54
2022/07/19 20:45:03;;;;;;;3.17;2.10;;;31.40;21.70;;;;;;21251887;27;20062;-54
2022/07/19 20:55:06;;;;;;;4.85;2.10;;;31.10;22.40;;;;;;21250902;27;20383;-55
2022/07/19 21:05:08;;;;;;;3.83;1.92;;;30.90;22.70;;;;;;21250583;27;20402;-54
2022/07/19 21:15:10;;;;;;;2.95;1.60;;;30.60;23.20;;;;;;21250374;27;20043;-56
2022/07/19 21:25:13;;;;;;;3.72;1.80;;;30.50;23.40;;;;;;21249070;27;20047;-56
2022/07/19 21:35:15;;;;;;;6.88;1.95;;;30.30;23.60;;;;;;21248375;27;20101;-55
2022/07/19 21:45:17;;;;;;;5.68;2.67;;;30.10;23.80;;;;;;21248328;27;20481;-55
2022/07/19 21:55:19;;;;;;;4.25;1.60;;;30.00;23.90;;;;;;21248986;27;20419;-55
2022/07/19 22:05:20;;;;;;;5.68;1.70;;;29.90;23.90;;;;;;21247443;28;20050;-54
2022/07/19 22:15:21;;;;;;;4.28;1.98;;;29.80;23.90;;;;;;21246622;28;20452;-55
2022/07/19 22:25:23;;;;;;;7.53;2.15;;;29.80;24.00;;;;;;21246125;28;20049;-56
2022/07/19 22:35:25;;;;;;;8.43;2.30;;;29.80;24.10;;;;;;21246609;28;20090;-59
2022/07/19 22:45:27;;;;;;;10.90;2.42;;;29.60;24.10;;;;;;21246219;28;20508;-56
2022/07/19 22:55:28;;;;;;;3.38;1.95;;;29.60;24.10;;;;;;21246207;28;20418;-54
2022/07/19 23:05:30;;;;;;;4.60;1.70;;;29.60;24.10;;;;;;21256470;27;20172;-56
2022/07/19 23:15:32;;;;;;;6.47;4.85;;;29.70;23.90;;;;;;21259421;27;20436;-57
2022/07/19 23:25:33;;;;;;;7.10;2.00;;;29.60;24.10;;;;;;21258958;27;20043;-54
2022/07/19 23:35:36;;;;;;;4.30;2.10;;;29.60;24.00;;;;;;21257648;27;20055;-56
2022/07/19 23:45:38;;;;;;;4.05;2.60;;;29.60;24.20;;;;;;21257238;27;20134;-56
2022/07/19 23:55:40;;;;;;;5.80;1.83;;;29.60;24.20;;;;;;21256422;27;20474;-55
